Terminal Aerodrome Forecast
Issued by NWS

Home | Current Version | Previous Version | Text Only | Print | Product List | Glossary On
Versions: 1 2 3 4 5 6 7 8 9 10 11 12 13 14 15 16 17
000
FTUS45 KRIW 281100
TAFBPI
TAF
KBPI 281121Z 2812/2912 36007KT P6SM VCSH SCT035 BKN060
     FM281800 29011G17KT P6SM -SHRA SCT035 BKN050
     FM282100 29011G17KT P6SM VCTS SCT035 BKN070CB
     FM290300 33008KT P6SM SCT050 BKN080=

USA.gov is the U.S. government's official web portal to all federal, state and local government web resources and services.